sensor_id;sensor_type;location;lat;lon;timestamp;pressure;altitude;pressure_sealevel;temperature;humidity
75867;BME280;64513;56.258;43.980;2023-02-12T00:02:11;98829.51;;;0.86;58.71
75867;BME280;64513;56.258;43.980;2023-02-12T00:04:35;98829.19;;;0.82;58.99
75867;BME280;64513;56.258;43.980;2023-02-12T00:07:00;98817.87;;;0.43;59.61
75867;BME280;64513;56.258;43.980;2023-02-12T00:09:24;98813.45;;;0.44;59.54
75867;BME280;64513;56.258;43.980;2023-02-12T00:11:48;98821.59;;;0.64;59.34
75867;BME280;64513;56.258;43.980;2023-02-12T00:14:12;98825.05;;;0.53;59.52
75867;BME280;64513;56.258;43.980;2023-02-12T00:16:36;98815.11;;;0.50;59.62
75867;BME280;64513;56.258;43.980;2023-02-12T00:19:01;98812.14;;;0.58;59.42
75867;BME280;64513;56.258;43.980;2023-02-12T00:21:25;98817.94;;;0.48;59.67
75867;BME280;64513;56.258;43.980;2023-02-12T00:23:49;98814.97;;;0.56;59.47
75867;BME280;64513;56.258;43.980;2023-02-12T00:26:16;98812.60;;;0.55;59.44
75867;BME280;64513;56.258;43.980;2023-02-12T00:28:41;98805.19;;;0.63;59.20
75867;BME280;64513;56.258;43.980;2023-02-12T00:31:26;98796.13;;;0.66;59.13
75867;BME280;64513;56.258;43.980;2023-02-12T00:33:51;98788.63;;;0.53;59.36
75867;BME280;64513;56.258;43.980;2023-02-12T00:36:18;98798.60;;;0.27;59.83
75867;BME280;64513;56.258;43.980;2023-02-12T00:38:43;98798.50;;;0.22;59.94
75867;BME280;64513;56.258;43.980;2023-02-12T00:41:07;98797.15;;;0.20;59.96
75867;BME280;64513;56.258;43.980;2023-02-12T00:43:32;98798.38;;;0.29;59.90
75867;BME280;64513;56.258;43.980;2023-02-12T00:45:56;98786.72;;;0.31;59.82
75867;BME280;64513;56.258;43.980;2023-02-12T00:48:20;98793.34;;;0.39;59.69
75867;BME280;64513;56.258;43.980;2023-02-12T00:50:45;98781.03;;;0.34;59.74
75867;BME280;64513;56.258;43.980;2023-02-12T00:53:10;98779.28;;;0.23;59.93
75867;BME280;64513;56.258;43.980;2023-02-12T00:55:34;98779.90;;;0.14;60.02
75867;BME280;64513;56.258;43.980;2023-02-12T00:57:59;98770.75;;;0.11;60.06
75867;BME280;64513;56.258;43.980;2023-02-12T01:00:23;98775.20;;;-0.01;60.32
75867;BME280;64513;56.258;43.980;2023-02-12T01:02:47;98770.59;;;-0.11;60.46
75867;BME280;64513;56.258;43.980;2023-02-12T01:05:12;98778.38;;;-0.11;60.48
75867;BME280;64513;56.258;43.980;2023-02-12T01:07:36;98776.69;;;-0.05;60.45
75867;BME280;64513;56.258;43.980;2023-02-12T01:10:01;98772.61;;;-0.01;60.31
75867;BME280;64513;56.258;43.980;2023-02-12T01:12:26;98773.06;;;-0.04;60.30
75867;BME280;64513;56.258;43.980;2023-02-12T01:14:50;98771.27;;;-0.15;60.45
75867;BME280;64513;56.258;43.980;2023-02-12T01:17:14;98776.09;;;-0.36;60.75
75867;BME280;64513;56.258;43.980;2023-02-12T01:19:38;98765.44;;;-0.22;60.59
75867;BME280;64513;56.258;43.980;2023-02-12T01:22:03;98765.48;;;-0.46;61.06
75867;BME280;64513;56.258;43.980;2023-02-12T01:24:27;98772.59;;;-0.41;61.14
75867;BME280;64513;56.258;43.980;2023-02-12T01:26:51;98767.99;;;-0.51;61.25
75867;BME280;64513;56.258;43.980;2023-02-12T01:29:15;98768.89;;;-0.57;61.61
75867;BME280;64513;56.258;43.980;2023-02-12T01:31:39;98775.67;;;-0.56;61.49
75867;BME280;64513;56.258;43.980;2023-02-12T01:34:05;98760.09;;;-0.56;61.42
75867;BME280;64513;56.258;43.980;2023-02-12T01:36:30;98759.64;;;-0.53;61.55
75867;BME280;64513;56.258;43.980;2023-02-12T01:38:55;98758.39;;;-0.50;61.56
75867;BME280;64513;56.258;43.980;2023-02-12T01:47:15;98758.05;;;-0.54;62.10
75867;BME280;64513;56.258;43.980;2023-02-12T01:49:39;98758.84;;;-0.53;62.28
75867;BME280;64513;56.258;43.980;2023-02-12T01:54:51;98758.81;;;-0.42;62.05
75867;BME280;64513;56.258;43.980;2023-02-12T01:57:17;98767.99;;;-0.51;62.48
75867;BME280;64513;56.258;43.980;2023-02-12T01:59:42;98748.45;;;-0.53;62.68
75867;BME280;64513;56.258;43.980;2023-02-12T02:02:08;98765.16;;;-0.61;62.98
75867;BME280;64513;56.258;43.980;2023-02-12T02:07:18;98760.77;;;-0.49;62.96
75867;BME280;64513;56.258;43.980;2023-02-12T02:09:43;98761.30;;;-0.47;63.92
75867;BME280;64513;56.258;43.980;2023-02-12T02:12:07;98771.06;;;-0.65;64.54
75867;BME280;64513;56.258;43.980;2023-02-12T02:14:53;98745.89;;;-0.65;64.73
75867;BME280;64513;56.258;43.980;2023-02-12T02:21:25;98760.98;;;-0.62;64.67
75867;BME280;64513;56.258;43.980;2023-02-12T02:32:41;98744.77;;;-0.92;66.57
75867;BME280;64513;56.258;43.980;2023-02-12T02:44:04;98748.39;;;-1.17;67.37
75867;BME280;64513;56.258;43.980;2023-02-12T02:46:49;98759.55;;;-1.16;67.41
75867;BME280;64513;56.258;43.980;2023-02-12T02:50:10;98741.62;;;-1.18;67.88
75867;BME280;64513;56.258;43.980;2023-02-12T02:52:02;98742.06;;;-1.21;68.21
75867;BME280;64513;56.258;43.980;2023-02-12T02:57:35;98739.33;;;-1.49;68.62
75867;BME280;64513;56.258;43.980;2023-02-12T03:00:34;98745.21;;;-1.42;68.49
75867;BME280;64513;56.258;43.980;2023-02-12T03:08:19;98749.14;;;-1.39;68.44
75867;BME280;64513;56.258;43.980;2023-02-12T03:10:47;98752.30;;;-1.37;68.58
75867;BME280;64513;56.258;43.980;2023-02-12T03:16:02;98746.11;;;-1.25;68.00
75867;BME280;64513;56.258;43.980;2023-02-12T03:21:13;98741.05;;;-1.31;67.81
75867;BME280;64513;56.258;43.980;2023-02-12T03:26:26;98729.44;;;-1.17;67.60
75867;BME280;64513;56.258;43.980;2023-02-12T03:28:50;98731.91;;;-1.34;68.22
75867;BME280;64513;56.258;43.980;2023-02-12T03:34:23;98742.98;;;-1.27;68.55
75867;BME280;64513;56.258;43.980;2023-02-12T03:36:48;98728.61;;;-1.41;68.78
75867;BME280;64513;56.258;43.980;2023-02-12T03:45:26;98730.09;;;-1.45;69.16
75867;BME280;64513;56.258;43.980;2023-02-12T03:48:10;98736.16;;;-1.51;69.63
75867;BME280;64513;56.258;43.980;2023-02-12T03:50:38;98722.28;;;-1.57;69.76
75867;BME280;64513;56.258;43.980;2023-02-12T03:53:02;98726.44;;;-1.67;69.69
75867;BME280;64513;56.258;43.980;2023-02-12T03:55:27;98725.30;;;-1.71;69.82
75867;BME280;64513;56.258;43.980;2023-02-12T04:00:37;98731.31;;;-1.59;69.80
75867;BME280;64513;56.258;43.980;2023-02-12T04:03:03;98733.99;;;-1.66;69.97
75867;BME280;64513;56.258;43.980;2023-02-12T04:05:28;98728.02;;;-1.66;70.06
75867;BME280;64513;56.258;43.980;2023-02-12T04:07:53;98726.44;;;-1.67;69.90
75867;BME280;64513;56.258;43.980;2023-02-12T04:18:54;98732.33;;;-1.60;69.63
75867;BME280;64513;56.258;43.980;2023-02-12T04:33:19;98742.69;;;-1.60;69.36
75867;BME280;64513;56.258;43.980;2023-02-12T04:41:35;98739.55;;;-1.39;68.95
75867;BME280;64513;56.258;43.980;2023-02-12T04:46:45;98744.07;;;-1.46;69.24
75867;BME280;64513;56.258;43.980;2023-02-12T04:49:12;98736.39;;;-1.41;69.28
75867;BME280;64513;56.258;43.980;2023-02-12T04:51:36;98735.51;;;-1.35;69.35
75867;BME280;64513;56.258;43.980;2023-02-12T04:54:01;98747.69;;;-1.35;69.13
75867;BME280;64513;56.258;43.980;2023-02-12T04:56:25;98752.73;;;-1.41;69.24
75867;BME280;64513;56.258;43.980;2023-02-12T04:58:49;98737.97;;;-1.40;69.54
75867;BME280;64513;56.258;43.980;2023-02-12T05:01:14;98740.25;;;-1.32;69.32
75867;BME280;64513;56.258;43.980;2023-02-12T05:03:38;98746.45;;;-1.33;69.32
75867;BME280;64513;56.258;43.980;2023-02-12T05:06:22;98742.72;;;-1.25;69.16
75867;BME280;64513;56.258;43.980;2023-02-12T05:08:46;98744.33;;;-1.13;68.92
75867;BME280;64513;56.258;43.980;2023-02-12T05:11:11;98757.18;;;-1.18;68.81
75867;BME280;64513;56.258;43.980;2023-02-12T05:13:35;98751.77;;;-1.04;68.67
75867;BME280;64513;56.258;43.980;2023-02-12T05:15:59;98752.91;;;-1.00;68.59
75867;BME280;64513;56.258;43.980;2023-02-12T05:18:23;98750.74;;;-0.92;68.56
75867;BME280;64513;56.258;43.980;2023-02-12T05:23:35;98753.11;;;-0.67;67.96
75867;BME280;64513;56.258;43.980;2023-02-12T05:26:01;98754.89;;;-0.56;67.40
75867;BME280;64513;56.258;43.980;2023-02-12T05:28:26;98770.67;;;-0.46;67.23
75867;BME280;64513;56.258;43.980;2023-02-12T05:30:50;98751.02;;;-0.42;66.93
75867;BME280;64513;56.258;43.980;2023-02-12T05:33:15;98755.31;;;-0.36;66.77
75867;BME280;64513;56.258;43.980;2023-02-12T05:35:39;98758.33;;;-0.27;66.69
75867;BME280;64513;56.258;43.980;2023-02-12T05:38:03;98758.66;;;-0.23;66.63
75867;BME280;64513;56.258;43.980;2023-02-12T05:40:27;98767.02;;;-0.21;66.12
75867;BME280;64513;56.258;43.980;2023-02-12T05:42:52;98768.22;;;-0.12;66.24
75867;BME280;64513;56.258;43.980;2023-02-12T05:45:16;98763.69;;;-0.05;66.15
75867;BME280;64513;56.258;43.980;2023-02-12T05:47:40;98765.12;;;0.03;65.70
75867;BME280;64513;56.258;43.980;2023-02-12T05:50:05;98766.92;;;0.02;65.56
75867;BME280;64513;56.258;43.980;2023-02-12T05:52:30;98775.28;;;0.04;65.62
75867;BME280;64513;56.258;43.980;2023-02-12T05:54:54;98770.42;;;0.08;65.52
75867;BME280;64513;56.258;43.980;2023-02-12T05:57:18;98774.37;;;0.10;65.33
75867;BME280;64513;56.258;43.980;2023-02-12T05:59:42;98772.33;;;0.12;65.25
75867;BME280;64513;56.258;43.980;2023-02-12T06:02:06;98775.80;;;0.18;65.14
75867;BME280;64513;56.258;43.980;2023-02-12T06:04:30;98788.56;;;0.19;64.99
75867;BME280;64513;56.258;43.980;2023-02-12T06:06:55;98780.76;;;0.19;65.01
75867;BME280;64513;56.258;43.980;2023-02-12T06:09:20;98787.47;;;0.15;65.06
75867;BME280;64513;56.258;43.980;2023-02-12T06:11:44;98780.36;;;0.11;65.01
75867;BME280;64513;56.258;43.980;2023-02-12T06:14:12;98792.00;;;0.08;64.94
75867;BME280;64513;56.258;43.980;2023-02-12T06:16:35;98788.84;;;0.06;64.78
75867;BME280;64513;56.258;43.980;2023-02-12T06:19:02;98789.30;;;0.03;64.75
75867;BME280;64513;56.258;43.980;2023-02-12T06:21:28;98786.39;;;-0.01;64.57
75867;BME280;64513;56.258;43.980;2023-02-12T06:23:53;98786.14;;;0.01;64.37
75867;BME280;64513;56.258;43.980;2023-02-12T06:26:18;98790.31;;;0.02;64.36
75867;BME280;64513;56.258;43.980;2023-02-12T06:28:44;98793.94;;;0.01;64.37
75867;BME280;64513;56.258;43.980;2023-02-12T06:31:29;98789.86;;;0.05;64.34
75867;BME280;64513;56.258;43.980;2023-02-12T06:33:55;98784.99;;;0.09;64.53
75867;BME280;64513;56.258;43.980;2023-02-12T06:36:20;98787.92;;;0.12;64.19
75867;BME280;64513;56.258;43.980;2023-02-12T06:38:45;98793.69;;;0.14;64.00
75867;BME280;64513;56.258;43.980;2023-02-12T06:41:10;98795.01;;;0.17;64.06
75867;BME280;64513;56.258;43.980;2023-02-12T06:43:34;98803.19;;;0.09;64.04
75867;BME280;64513;56.258;43.980;2023-02-12T06:46:18;98787.03;;;0.07;64.04
75867;BME280;64513;56.258;43.980;2023-02-12T06:48:42;98794.50;;;0.03;64.22
75867;BME280;64513;56.258;43.980;2023-02-12T06:51:27;98799.23;;;0.06;64.15
75867;BME280;64513;56.258;43.980;2023-02-12T06:53:53;98795.16;;;0.10;64.00
75867;BME280;64513;56.258;43.980;2023-02-12T06:56:18;98802.28;;;0.15;64.01
75867;BME280;64513;56.258;43.980;2023-02-12T06:58:44;98804.09;;;0.14;63.78
75867;BME280;64513;56.258;43.980;2023-02-12T07:01:29;98810.30;;;0.13;63.68
75867;BME280;64513;56.258;43.980;2023-02-12T07:03:56;98809.36;;;0.19;63.86
75867;BME280;64513;56.258;43.980;2023-02-12T07:06:21;98812.06;;;0.24;63.60
75867;BME280;64513;56.258;43.980;2023-02-12T07:08:46;98806.53;;;0.21;63.42
75867;BME280;64513;56.258;43.980;2023-02-12T07:11:10;98806.76;;;0.19;63.38
75867;BME280;64513;56.258;43.980;2023-02-12T07:13:35;98812.06;;;0.24;63.48
75867;BME280;64513;56.258;43.980;2023-02-12T07:16:20;98817.49;;;0.23;63.34
75867;BME280;64513;56.258;43.980;2023-02-12T07:18:45;98805.28;;;0.23;63.24
75867;BME280;64513;56.258;43.980;2023-02-12T07:21:09;98817.27;;;0.24;63.08
75867;BME280;64513;56.258;43.980;2023-02-12T07:23:34;98824.14;;;0.30;63.17
75867;BME280;64513;56.258;43.980;2023-02-12T07:26:01;98810.88;;;0.32;62.96
75867;BME280;64513;56.258;43.980;2023-02-12T07:28:26;98821.39;;;0.37;62.82
75867;BME280;64513;56.258;43.980;2023-02-12T07:30:52;98822.41;;;0.36;62.93
75867;BME280;64513;56.258;43.980;2023-02-12T07:33:16;98824.55;;;0.39;62.84
75867;BME280;64513;56.258;43.980;2023-02-12T07:35:41;98811.87;;;0.43;62.79
75867;BME280;64513;56.258;43.980;2023-02-12T07:38:05;98816.62;;;0.46;62.59
75867;BME280;64513;56.258;43.980;2023-02-12T07:40:29;98823.30;;;0.42;62.60
75867;BME280;64513;56.258;43.980;2023-02-12T07:43:13;98825.67;;;0.43;62.69
75867;BME280;64513;56.258;43.980;2023-02-12T07:45:37;98834.59;;;0.47;62.52
75867;BME280;64513;56.258;43.980;2023-02-12T07:48:02;98828.04;;;0.45;62.61
75867;BME280;64513;56.258;43.980;2023-02-12T07:50:26;98836.08;;;0.43;62.57
75867;BME280;64513;56.258;43.980;2023-02-12T07:52:50;98836.08;;;0.43;62.71
75867;BME280;64513;56.258;43.980;2023-02-12T07:55:15;98836.86;;;0.44;62.54
75867;BME280;64513;56.258;43.980;2023-02-12T07:57:40;98850.95;;;0.48;62.67
75867;BME280;64513;56.258;43.980;2023-02-12T08:00:05;98841.44;;;0.53;62.53
75867;BME280;64513;56.258;43.980;2023-02-12T08:02:29;98852.18;;;0.57;62.53
75867;BME280;64513;56.258;43.980;2023-02-12T08:05:13;98855.80;;;0.56;62.47
75867;BME280;64513;56.258;43.980;2023-02-12T08:07:37;98863.94;;;0.59;62.33
75867;BME280;64513;56.258;43.980;2023-02-12T08:10:01;98860.09;;;0.62;62.29
75867;BME280;64513;56.258;43.980;2023-02-12T08:12:26;98859.59;;;0.65;62.32
75867;BME280;64513;56.258;43.980;2023-02-12T08:14:50;98863.55;;;0.67;62.62
75867;BME280;64513;56.258;43.980;2023-02-12T08:17:15;98858.67;;;0.71;62.31
75867;BME280;64513;56.258;43.980;2023-02-12T08:19:39;98861.83;;;0.73;62.11
75867;BME280;64513;56.258;43.980;2023-02-12T08:22:03;98868.62;;;0.74;62.12
75867;BME280;64513;56.258;43.980;2023-02-12T08:24:28;98866.57;;;0.76;62.06
75867;BME280;64513;56.258;43.980;2023-02-12T08:26:52;98858.53;;;0.78;62.15
75867;BME280;64513;56.258;43.980;2023-02-12T08:29:19;98873.42;;;0.82;62.00
75867;BME280;64513;56.258;43.980;2023-02-12T08:31:46;98870.59;;;0.84;61.93
75867;BME280;64513;56.258;43.980;2023-02-12T08:36:57;98884.49;;;0.89;61.93
75867;BME280;64513;56.258;43.980;2023-02-12T08:39:22;98883.47;;;0.90;61.91
75867;BME280;64513;56.258;43.980;2023-02-12T08:41:48;98885.28;;;0.90;61.81
75867;BME280;64513;56.258;43.980;2023-02-12T08:44:12;98891.18;;;0.85;62.09
75867;BME280;64513;56.258;43.980;2023-02-12T08:46:39;98890.26;;;0.91;62.10
75867;BME280;64513;56.258;43.980;2023-02-12T08:49:25;98895.53;;;0.96;62.15
75867;BME280;64513;56.258;43.980;2023-02-12T08:51:51;98902.08;;;0.99;61.94
75867;BME280;64513;56.258;43.980;2023-02-12T08:54:18;98894.83;;;1.01;61.81
75867;BME280;64513;56.258;43.980;2023-02-12T08:56:43;98893.34;;;1.05;61.58
75867;BME280;64513;56.258;43.980;2023-02-12T08:59:12;98906.20;;;1.12;61.57
75867;BME280;64513;56.258;43.980;2023-02-12T09:01:37;98907.22;;;1.11;61.49
75867;BME280;64513;56.258;43.980;2023-02-12T09:04:24;98905.73;;;1.15;61.54
75867;BME280;64513;56.258;43.980;2023-02-12T09:06:49;98903.13;;;1.15;61.65
75867;BME280;64513;56.258;43.980;2023-02-12T09:09:14;98906.84;;;1.19;61.48
75867;BME280;64513;56.258;43.980;2023-02-12T09:11:40;98910.80;;;1.21;61.21
75867;BME280;64513;56.258;43.980;2023-02-12T09:14:07;98913.17;;;1.23;61.26
75867;BME280;64513;56.258;43.980;2023-02-12T09:16:34;98914.25;;;1.27;61.22
75867;BME280;64513;56.258;43.980;2023-02-12T09:19:00;98920.58;;;1.31;61.31
75867;BME280;64513;56.258;43.980;2023-02-12T09:21:24;98915.37;;;1.31;61.22
75867;BME280;64513;56.258;43.980;2023-02-12T09:23:49;98908.20;;;1.38;61.46
75867;BME280;64513;56.258;43.980;2023-02-12T09:26:16;98913.47;;;1.43;61.34
75867;BME280;64513;56.258;43.980;2023-02-12T09:28:41;98920.81;;;1.46;61.03
75867;BME280;64513;56.258;43.980;2023-02-12T09:31:08;98922.95;;;1.49;60.99
75867;BME280;64513;56.258;43.980;2023-02-12T09:33:32;98916.80;;;1.55;60.97
75867;BME280;64513;56.258;43.980;2023-02-12T09:38:44;98926.25;;;1.61;61.05
75867;BME280;64513;56.258;43.980;2023-02-12T09:52:50;98938.11;;;1.69;60.94
75867;BME280;64513;56.258;43.980;2023-02-12T09:55:16;98943.38;;;1.74;60.79
75867;BME280;64513;56.258;43.980;2023-02-12T09:57:42;98950.25;;;1.80;60.58
75867;BME280;64513;56.258;43.980;2023-02-12T10:00:27;98947.17;;;1.83;61.16
75867;BME280;64513;56.258;43.980;2023-02-12T10:02:53;98953.50;;;1.87;60.84
75867;BME280;64513;56.258;43.980;2023-02-12T10:05:19;98952.76;;;1.92;61.09
75867;BME280;64513;56.258;43.980;2023-02-12T10:11:13;98963.82;;;1.99;60.61
75867;BME280;64513;56.258;43.980;2023-02-12T10:23:10;98952.97;;;2.07;60.13
75867;BME280;64513;56.258;43.980;2023-02-12T10:25:52;98958.73;;;2.09;60.11
75867;BME280;64513;56.258;43.980;2023-02-12T10:28:50;98964.74;;;2.09;60.31
75867;BME280;64513;56.258;43.980;2023-02-12T10:31:07;98970.75;;;2.10;60.32
75867;BME280;64513;56.258;43.980;2023-02-12T10:33:50;98969.72;;;2.11;60.28
75867;BME280;64513;56.258;43.980;2023-02-12T10:39:41;98969.80;;;2.16;60.09
75867;BME280;64513;56.258;43.980;2023-02-12T10:45:31;98972.17;;;2.18;60.42
75867;BME280;64513;56.258;43.980;2023-02-12T10:48:18;98976.12;;;2.20;60.64
75867;BME280;64513;56.258;43.980;2023-02-12T10:53:47;98984.47;;;2.22;60.35
75867;BME280;64513;56.258;43.980;2023-02-12T10:56:14;98989.21;;;2.25;60.16
75867;BME280;64513;56.258;43.980;2023-02-12T11:01:45;99000.59;;;2.36;59.92
75867;BME280;64513;56.258;43.980;2023-02-12T11:04:31;98999.80;;;2.35;60.08
75867;BME280;64513;56.258;43.980;2023-02-12T11:12:47;99014.95;;;2.38;60.16
75867;BME280;64513;56.258;43.980;2023-02-12T11:18:35;99022.85;;;2.43;59.75
75867;BME280;64513;56.258;43.980;2023-02-12T11:21:03;99024.44;;;2.44;59.76
75867;BME280;64513;56.258;43.980;2023-02-12T11:23:47;99031.23;;;2.45;59.63
75867;BME280;64513;56.258;43.980;2023-02-12T11:26:31;99033.37;;;2.49;60.52
75867;BME280;64513;56.258;43.980;2023-02-12T11:28:58;99034.70;;;2.51;60.84
75867;BME280;64513;56.258;43.980;2023-02-12T11:31:43;99042.27;;;2.53;60.66
75867;BME280;64513;56.258;43.980;2023-02-12T11:36:54;99044.95;;;2.58;60.25
75867;BME280;64513;56.258;43.980;2023-02-12T11:39:50;99055.16;;;2.59;60.08
75867;BME280;64513;56.258;43.980;2023-02-12T11:41:49;99059.11;;;2.62;59.84
75867;BME280;64513;56.258;43.980;2023-02-12T11:44:35;99064.89;;;2.64;59.70
75867;BME280;64513;56.258;43.980;2023-02-12T11:47:01;99067.25;;;2.65;59.73
75867;BME280;64513;56.258;43.980;2023-02-12T11:49:49;99071.18;;;2.68;60.12
75867;BME280;64513;56.258;43.980;2023-02-12T11:52:35;99075.13;;;2.70;60.17
75867;BME280;64513;56.258;43.980;2023-02-12T11:55:02;99073.86;;;2.73;59.86
75867;BME280;64513;56.258;43.980;2023-02-12T12:03:39;99082.88;;;2.82;59.83
75867;BME280;64513;56.258;43.980;2023-02-12T12:15:31;99103.26;;;2.85;59.23
75867;BME280;64513;56.258;43.980;2023-02-12T12:21:27;99105.34;;;2.83;58.95
75867;BME280;64513;56.258;43.980;2023-02-12T12:26:24;99114.73;;;2.84;59.56
75867;BME280;64513;56.258;43.980;2023-02-12T12:31:56;99123.36;;;2.85;59.25
75867;BME280;64513;56.258;43.980;2023-02-12T12:34:40;99135.62;;;2.84;58.93
75867;BME280;64513;56.258;43.980;2023-02-12T12:46:54;99141.39;;;2.86;58.62
75867;BME280;64513;56.258;43.980;2023-02-12T13:00:47;99164.61;;;2.83;58.38
75867;BME280;64513;56.258;43.980;2023-02-12T13:03:15;99164.84;;;2.81;58.45
75867;BME280;64513;56.258;43.980;2023-02-12T13:37:43;99213.25;;;2.72;60.00
75867;BME280;64513;56.258;43.980;2023-02-12T13:52:12;99223.08;;;2.65;60.19
75867;BME280;64513;56.258;43.980;2023-02-12T14:23:46;99280.95;;;2.45;60.18
75867;BME280;64513;56.258;43.980;2023-02-12T14:26:13;99281.41;;;2.42;60.61
75867;BME280;64513;56.258;43.980;2023-02-12T14:28:59;99285.27;;;2.39;60.37
75867;BME280;64513;56.258;43.980;2023-02-12T14:31:43;99294.69;;;2.40;60.57
75867;BME280;64513;56.258;43.980;2023-02-12T14:36:39;99294.69;;;2.40;60.76
75867;BME280;64513;56.258;43.980;2023-02-12T14:44:54;99315.10;;;2.43;60.97
75867;BME280;64513;56.258;43.980;2023-02-12T14:49:52;99316.69;;;2.44;60.71
75867;BME280;64513;56.258;43.980;2023-02-12T14:52:38;99323.72;;;2.44;60.98
75867;BME280;64513;56.258;43.980;2023-02-12T14:58:14;99343.80;;;2.43;60.95
75867;BME280;64513;56.258;43.980;2023-02-12T15:00:37;99340.41;;;2.43;61.01
75867;BME280;64513;56.258;43.980;2023-02-12T15:07:00;99341.20;;;2.43;61.03
75867;BME280;64513;56.258;43.980;2023-02-12T15:14:44;99346.88;;;2.40;61.09
75867;BME280;64513;56.258;43.980;2023-02-12T15:17:13;99354.70;;;2.40;60.93
75867;BME280;64513;56.258;43.980;2023-02-12T15:25:30;99378.75;;;2.42;61.02
75867;BME280;64513;56.258;43.980;2023-02-12T15:31:00;99385.78;;;2.42;60.98
75867;BME280;64513;56.258;43.980;2023-02-12T15:33:30;99387.83;;;2.40;61.19
75867;BME280;64513;56.258;43.980;2023-02-12T15:35:53;99392.26;;;2.39;61.18
75867;BME280;64513;56.258;43.980;2023-02-12T15:38:20;99383.41;;;2.40;60.92
75867;BME280;64513;56.258;43.980;2023-02-12T15:41:05;99391.80;;;2.42;60.68
75867;BME280;64513;56.258;43.980;2023-02-12T15:43:32;99384.20;;;2.41;60.92
75867;BME280;64513;56.258;43.980;2023-02-12T15:45:56;99391.23;;;2.40;61.01
75867;BME280;64513;56.258;43.980;2023-02-12T15:48:22;99399.63;;;2.42;61.02
75867;BME280;64513;56.258;43.980;2023-02-12T15:50:51;99403.03;;;2.43;61.12
75867;BME280;64513;56.258;43.980;2023-02-12T15:53:15;99413.24;;;2.44;61.10
75867;BME280;64513;56.258;43.980;2023-02-12T15:55:42;99410.63;;;2.44;60.79
75867;BME280;64513;56.258;43.980;2023-02-12T16:00:54;99411.42;;;2.45;61.06
75867;BME280;64513;56.258;43.980;2023-02-12T16:03:39;99413.02;;;2.46;60.76
75867;BME280;64513;56.258;43.980;2023-02-12T16:06:06;99414.60;;;2.47;60.75
75867;BME280;64513;56.258;43.980;2023-02-12T16:11:56;99412.22;;;2.45;60.66
75867;BME280;64513;56.258;43.980;2023-02-12T16:17:46;99411.66;;;2.43;60.65
75867;BME280;64513;56.258;43.980;2023-02-12T16:20:30;99418.12;;;2.41;60.71
75867;BME280;64513;56.258;43.980;2023-02-12T16:22:56;99423.57;;;2.39;60.79
75867;BME280;64513;56.258;43.980;2023-02-12T16:30:51;99431.31;;;2.34;60.71
75867;BME280;64513;56.258;43.980;2023-02-12T16:38:52;99439.83;;;2.30;60.74
75867;BME280;64513;56.258;43.980;2023-02-12T16:46:42;99435.17;;;2.32;60.51
75867;BME280;64513;56.258;43.980;2023-02-12T16:49:00;99443.80;;;2.32;60.82
75867;BME280;64513;56.258;43.980;2023-02-12T16:57:14;99462.63;;;2.34;60.67
75867;BME280;64513;56.258;43.980;2023-02-12T16:59:38;99457.41;;;2.34;60.73
75867;BME280;64513;56.258;43.980;2023-02-12T17:02:36;99457.41;;;2.34;60.78
75867;BME280;64513;56.258;43.980;2023-02-12T17:04:32;99460.02;;;2.34;60.74
75867;BME280;64513;56.258;43.980;2023-02-12T17:06:56;99461.61;;;2.35;60.44
75867;BME280;64513;56.258;43.980;2023-02-12T17:09:21;99465.02;;;2.36;60.44
75867;BME280;64513;56.258;43.980;2023-02-12T17:11:45;99459.79;;;2.36;60.51
75867;BME280;64513;56.258;43.980;2023-02-12T17:14:13;99464.22;;;2.35;60.54
75867;BME280;64513;56.258;43.980;2023-02-12T17:16:36;99468.16;;;2.38;60.29
75867;BME280;64513;56.258;43.980;2023-02-12T17:19:01;99474.17;;;2.38;60.39
75867;BME280;64513;56.258;43.980;2023-02-12T17:24:32;99479.88;;;2.35;60.09
75867;BME280;64513;56.258;43.980;2023-02-12T17:26:57;99488.23;;;2.37;60.39
75867;BME280;64513;56.258;43.980;2023-02-12T17:29:23;99486.11;;;2.34;60.18
75867;BME280;64513;56.258;43.980;2023-02-12T17:31:48;99486.34;;;2.33;60.27
75867;BME280;64513;56.258;43.980;2023-02-12T17:34:15;99484.30;;;2.35;60.30
75867;BME280;64513;56.258;43.980;2023-02-12T17:36:40;99482.70;;;2.34;60.16
75867;BME280;64513;56.258;43.980;2023-02-12T17:39:05;99481.91;;;2.33;59.87
75867;BME280;64513;56.258;43.980;2023-02-12T17:41:30;99487.13;;;2.33;59.93
75867;BME280;64513;56.258;43.980;2023-02-12T17:43:55;99493.14;;;2.34;59.91
75867;BME280;64513;56.258;43.980;2023-02-12T17:46:21;99486.91;;;2.35;59.94
75867;BME280;64513;56.258;43.980;2023-02-12T17:48:46;99494.73;;;2.35;59.86
75867;BME280;64513;56.258;43.980;2023-02-12T17:51:10;99493.94;;;2.34;59.70
75867;BME280;64513;56.258;43.980;2023-02-12T17:53:35;99488.72;;;2.34;59.33
75867;BME280;64513;56.258;43.980;2023-02-12T17:55:59;99499.16;;;2.34;59.42
75867;BME280;64513;56.258;43.980;2023-02-12T17:58:23;99502.78;;;2.33;59.68
75867;BME280;64513;56.258;43.980;2023-02-12T18:00:47;99500.17;;;2.33;59.49
75867;BME280;64513;56.258;43.980;2023-02-12T18:03:11;99511.18;;;2.35;59.45
75867;BME280;64513;56.258;43.980;2023-02-12T18:08:21;99511.63;;;2.32;59.58
75867;BME280;64513;56.258;43.980;2023-02-12T18:10:45;99497.56;;;2.33;59.24
75867;BME280;64513;56.258;43.980;2023-02-12T18:13:09;99508.00;;;2.33;59.59
75867;BME280;64513;56.258;43.980;2023-02-12T18:15:34;99497.56;;;2.33;59.64
75867;BME280;64513;56.258;43.980;2023-02-12T18:17:59;99501.20;;;2.32;59.39
75867;BME280;64513;56.258;43.980;2023-02-12T18:20:23;99509.81;;;2.33;59.41
75867;BME280;64513;56.258;43.980;2023-02-12T18:22:47;99511.63;;;2.32;59.36
75867;BME280;64513;56.258;43.980;2023-02-12T18:25:11;99520.48;;;2.31;59.37
75867;BME280;64513;56.258;43.980;2023-02-12T18:27:35;99528.30;;;2.31;59.44
75867;BME280;64513;56.258;43.980;2023-02-12T18:30:00;99534.55;;;2.30;59.53
75867;BME280;64513;56.258;43.980;2023-02-12T18:32:25;99530.80;;;2.26;59.58
75867;BME280;64513;56.258;43.980;2023-02-12T18:34:50;99539.42;;;2.27;59.68
75867;BME280;64513;56.258;43.980;2023-02-12T18:37:14;99538.63;;;2.26;59.71